createdAt,value
2022-11-22T00:00:47.137Z,227.07
2022-11-22T00:03:21.300Z,221.00
2022-11-22T00:05:49.240Z,228.37
2022-11-22T00:08:16.909Z,233.20
2022-11-22T00:10:44.724Z,211.23
2022-11-22T00:13:12.154Z,210.77
2022-11-22T00:15:39.868Z,210.97
2022-11-22T00:18:07.248Z,220.07
2022-11-22T00:20:35.259Z,221.47
2022-11-22T00:23:03.309Z,210.50
2022-11-22T00:25:31.094Z,212.40
2022-11-22T00:27:58.590Z,199.93
2022-11-22T00:30:26.347Z,227.70
2022-11-22T00:32:53.800Z,206.37
2022-11-22T00:35:21.604Z,200.67
2022-11-22T00:37:49.121Z,227.77
2022-11-22T00:40:17.059Z,205.83
2022-11-22T00:42:44.476Z,200.57
2022-11-22T00:45:12.213Z,201.13
2022-11-22T00:47:39.766Z,206.33
2022-11-22T00:50:07.828Z,210.93
2022-11-22T00:52:35.254Z,213.57
2022-11-22T00:55:02.895Z,221.07
2022-11-22T00:57:30.377Z,205.17
2022-11-22T00:59:58.091Z,220.33
2022-11-22T01:02:25.560Z,206.27
2022-11-22T01:04:53.240Z,203.70
2022-11-22T01:07:20.774Z,204.67
2022-11-22T01:09:48.442Z,206.03
2022-11-22T01:12:15.801Z,221.77
2022-11-22T01:14:43.526Z,212.60
2022-11-22T01:17:10.939Z,227.33
2022-11-22T01:19:38.610Z,216.97
2022-11-22T01:22:06.103Z,229.13
2022-11-22T01:24:33.732Z,217.30
2022-11-22T01:27:01.326Z,226.00
2022-11-22T01:29:29.220Z,209.40
2022-11-22T01:31:56.986Z,216.43
2022-11-22T01:34:24.875Z,215.23
2022-11-22T01:36:52.311Z,212.63
2022-11-22T01:39:20.153Z,214.73
2022-11-22T01:41:47.821Z,208.77
2022-11-22T01:44:24.510Z,198.33
2022-11-22T01:46:59.400Z,192.63
2022-11-22T01:49:55.915Z,186.33
2022-11-22T01:52:26.417Z,208.50
2022-11-22T01:55:02.957Z,185.03
2022-11-22T01:57:35.690Z,164.43
2022-11-22T02:00:13.295Z,181.57
2022-11-22T02:02:49.219Z,162.47
2022-11-22T02:05:19.452Z,162.37
2022-11-22T02:07:49.702Z,170.03
2022-11-22T02:10:18.937Z,158.80
2022-11-22T02:12:46.650Z,150.67
2022-11-22T02:15:15.005Z,148.63
2022-11-22T02:17:42.555Z,142.07
2022-11-22T02:20:10.844Z,137.73
2022-11-22T02:23:02.811Z,143.07
2022-11-22T02:25:58.964Z,131.40
2022-11-22T02:28:29.901Z,136.10
2022-11-22T02:30:58.140Z,143.60
2022-11-22T02:33:25.562Z,136.83
2022-11-22T02:35:53.754Z,138.00
2022-11-22T02:38:32.976Z,142.37
2022-11-22T02:41:03.946Z,145.50
2022-11-22T02:43:37.820Z,133.20
2022-11-22T02:46:07.587Z,138.70
2022-11-22T02:48:40.455Z,144.43
2022-11-22T02:51:08.372Z,142.93
2022-11-22T02:53:36.300Z,145.50
2022-11-22T02:56:04.031Z,147.10
2022-11-22T02:58:31.624Z,153.70
2022-11-22T03:00:59.422Z,139.70
2022-11-22T03:03:26.936Z,163.93
2022-11-22T03:05:54.662Z,166.80
2022-11-22T03:08:22.391Z,157.70
2022-11-22T03:10:50.239Z,158.73
2022-11-22T03:13:17.631Z,170.47
2022-11-22T03:15:48.754Z,158.50
2022-11-22T03:18:16.313Z,157.33
2022-11-22T03:20:44.018Z,155.67
2022-11-22T03:23:11.393Z,135.30
2022-11-22T03:25:40.111Z,146.10
2022-11-22T03:28:07.938Z,133.27
2022-11-22T03:30:40.354Z,134.33
2022-11-22T03:33:07.793Z,133.60
2022-11-22T03:35:35.573Z,140.60
2022-11-22T03:38:03.538Z,128.97
2022-11-22T03:40:31.337Z,129.53
2022-11-22T03:43:00.804Z,136.83
2022-11-22T03:45:29.199Z,134.57
2022-11-22T03:47:57.549Z,127.67
2022-11-22T03:50:25.777Z,129.07
2022-11-22T03:52:53.301Z,144.33
2022-11-22T03:55:21.297Z,139.50
2022-11-22T03:57:48.671Z,129.57
2022-11-22T04:00:16.720Z,143.77
2022-11-22T04:02:44.375Z,142.27
2022-11-22T04:05:11.895Z,147.67
2022-11-22T04:07:39.891Z,143.47
2022-11-22T04:10:07.807Z,139.30
2022-11-22T04:12:36.101Z,139.30
2022-11-22T04:15:06.773Z,143.20
2022-11-22T04:17:46.380Z,149.03
2022-11-22T04:20:40.217Z,136.40
2022-11-22T04:23:13.331Z,144.17
2022-11-22T04:25:45.796Z,135.80
2022-11-22T04:28:15.749Z,145.07
2022-11-22T04:31:02.481Z,137.17
2022-11-22T04:33:31.360Z,123.63
2022-11-22T04:35:58.953Z,132.67
2022-11-22T04:38:26.717Z,133.50
2022-11-22T04:40:54.129Z,131.13
2022-11-22T04:43:46.207Z,125.20
2022-11-22T04:46:14.655Z,125.17
2022-11-22T04:48:42.567Z,126.93
2022-11-22T04:51:32.509Z,132.37
2022-11-22T04:54:00.403Z,129.37
2022-11-22T04:56:27.814Z,128.40
2022-11-22T04:58:55.465Z,115.17
2022-11-22T05:01:23.043Z,125.07
2022-11-22T05:03:50.683Z,122.30
2022-11-22T05:06:18.051Z,122.37
2022-11-22T05:08:45.692Z,122.83
2022-11-22T05:11:13.127Z,128.60
2022-11-22T05:13:42.714Z,138.20
2022-11-22T05:16:12.511Z,150.27
2022-11-22T05:18:40.637Z,152.17
2022-11-22T05:21:10.351Z,149.90
2022-11-22T05:23:57.133Z,151.83
2022-11-22T05:26:27.572Z,161.17
2022-11-22T05:28:58.277Z,145.13
2022-11-22T05:31:27.825Z,147.40
2022-11-22T05:33:57.195Z,140.20
2022-11-22T05:36:25.475Z,131.00
2022-11-22T05:38:54.137Z,137.77
2022-11-22T05:41:21.744Z,146.40
2022-11-22T05:43:49.480Z,133.53
2022-11-22T05:46:25.150Z,143.03
2022-11-22T05:48:54.861Z,147.33
2022-11-22T05:51:29.086Z,147.20
2022-11-22T05:53:58.797Z,122.37
2022-11-22T05:56:26.207Z,134.00
2022-11-22T05:58:53.877Z,129.30
2022-11-22T06:01:23.997Z,143.10
2022-11-22T06:03:52.033Z,128.27
2022-11-22T06:06:19.993Z,137.17
2022-11-22T06:08:48.742Z,128.80
2022-11-22T06:11:18.913Z,145.03
2022-11-22T06:13:49.421Z,145.00
2022-11-22T06:16:17.412Z,148.40
2022-11-22T06:18:45.659Z,128.37
2022-11-22T06:21:19.577Z,137.70
2022-11-22T06:23:47.435Z,134.03
2022-11-22T06:26:18.286Z,132.90
2022-11-22T06:28:48.403Z,122.47
2022-11-22T06:31:18.392Z,142.17
2022-11-22T06:33:46.640Z,123.70
2022-11-22T06:36:27.160Z,131.30
2022-11-22T06:38:56.192Z,141.07
2022-11-22T06:41:26.502Z,125.30
2022-11-22T06:43:57.657Z,125.57
2022-11-22T06:46:27.419Z,120.17
2022-11-22T06:48:55.069Z,134.77
2022-11-22T06:51:27.740Z,131.47
2022-11-22T06:53:56.417Z,137.23
2022-11-22T06:56:38.329Z,139.27
2022-11-22T06:59:07.530Z,129.37
2022-11-22T07:01:36.241Z,139.03
2022-11-22T07:04:05.498Z,125.73
2022-11-22T07:06:38.896Z,136.80
2022-11-22T07:09:09.508Z,131.13
2022-11-22T07:11:37.540Z,149.27
2022-11-22T07:14:08.702Z,140.90
2022-11-22T07:16:38.171Z,141.87
2022-11-22T07:19:06.895Z,135.40
2022-11-22T07:21:36.706Z,136.13
2022-11-22T07:24:06.236Z,136.50
2022-11-22T07:26:33.470Z,144.80
2022-11-22T07:29:01.125Z,135.13
2022-11-22T07:31:28.875Z,147.70
2022-11-22T07:34:01.223Z,133.43
2022-11-22T07:36:30.438Z,128.00
2022-11-22T07:38:58.270Z,144.90
2022-11-22T07:41:25.679Z,143.80
2022-11-22T07:43:53.313Z,123.07
2022-11-22T07:46:33.211Z,130.47
2022-11-22T07:49:02.078Z,131.27
2022-11-22T07:51:29.855Z,142.20
2022-11-22T07:53:59.006Z,138.10
2022-11-22T07:56:26.325Z,128.50
2022-11-22T07:58:54.835Z,126.10
2022-11-22T08:01:22.453Z,132.90
2022-11-22T08:03:49.974Z,124.33
2022-11-22T08:06:17.152Z,118.63
2022-11-22T08:08:44.870Z,123.87
2022-11-22T08:11:12.472Z,132.00
2022-11-22T08:13:40.836Z,113.33
2022-11-22T08:16:10.944Z,118.73
2022-11-22T08:18:39.462Z,129.13
2022-11-22T08:21:09.564Z,125.47
2022-11-22T08:23:37.846Z,119.97
2022-11-22T08:26:06.701Z,107.97
2022-11-22T08:28:35.635Z,106.03
2022-11-22T08:31:06.427Z,117.00
2022-11-22T08:33:34.153Z,106.90
2022-11-22T08:36:02.193Z,106.90
2022-11-22T08:38:30.160Z,105.20
2022-11-22T08:40:58.150Z,104.07
2022-11-22T08:43:26.035Z,107.27
2022-11-22T08:45:58.491Z,100.93
2022-11-22T08:48:27.137Z,110.27
2022-11-22T08:50:58.325Z,104.27
2022-11-22T08:53:26.740Z,102.53
2022-11-22T08:55:55.485Z,100.30
2022-11-22T08:58:23.564Z,99.53
2022-11-22T09:00:51.642Z,100.93
2022-11-22T09:03:19.305Z,103.07
2022-11-22T09:08:38.602Z,106.03
2022-11-22T09:11:11.085Z,95.40
2022-11-22T09:13:39.356Z,92.83
2022-11-22T09:16:15.941Z,94.97
2022-11-22T09:18:44.108Z,93.80
2022-11-22T09:21:16.139Z,87.47
2022-11-22T09:23:45.990Z,90.17
2022-11-22T09:26:18.929Z,82.53
2022-11-22T09:28:47.009Z,91.00
2022-11-22T09:31:17.093Z,93.60
2022-11-22T09:33:45.823Z,88.77
2022-11-22T09:36:17.183Z,85.43
2022-11-22T09:38:45.343Z,86.87
2022-11-22T09:41:18.837Z,75.50
2022-11-22T09:43:55.519Z,80.03
2022-11-22T09:46:53.946Z,75.40
2022-11-22T09:49:21.651Z,72.63
2022-11-22T09:52:07.485Z,70.43
2022-11-22T09:55:08.974Z,75.43
2022-11-22T09:57:47.612Z,75.47
2022-11-22T10:00:23.142Z,75.10
2022-11-22T10:03:16.581Z,80.70
2022-11-22T10:05:51.568Z,72.90
2022-11-22T10:08:37.785Z,65.93
2022-11-22T10:11:36.046Z,66.47
2022-11-22T10:14:13.280Z,70.17
2022-11-22T10:16:50.976Z,70.77
2022-11-22T10:19:25.659Z,72.03
2022-11-22T10:21:53.466Z,72.83
2022-11-22T10:24:20.866Z,78.13
2022-11-22T10:26:48.991Z,72.83
2022-11-22T10:29:40.127Z,71.53
2022-11-22T10:32:48.759Z,70.30
2022-11-22T10:35:37.119Z,67.03
2022-11-22T10:38:27.176Z,73.83
2022-11-22T10:41:30.791Z,75.87
2022-11-22T10:44:17.046Z,73.07
2022-11-22T10:46:56.986Z,82.73
2022-11-22T10:49:52.769Z,149.40
2022-11-22T10:52:59.291Z,204.07
2022-11-22T10:55:47.663Z,193.00
2022-11-22T10:58:47.293Z,188.97
2022-11-22T11:01:18.795Z,97.60
2022-11-22T11:03:50.280Z,116.33
2022-11-22T11:06:33.035Z,94.93
2022-11-22T11:12:35.007Z,97.77
2022-11-22T11:15:17.855Z,92.63
2022-11-22T11:17:52.423Z,80.00
2022-11-22T11:20:28.973Z,77.87
2022-11-22T11:23:15.260Z,92.50
2022-11-22T11:25:46.196Z,95.87
2022-11-22T11:28:22.016Z,104.23
2022-11-22T11:31:22.219Z,94.73
2022-11-22T11:33:50.285Z,84.30
2022-11-22T11:36:22.313Z,85.27
2022-11-22T11:38:58.406Z,116.87
2022-11-22T11:41:33.905Z,155.40
2022-11-22T11:44:05.987Z,102.33
2022-11-22T11:46:40.021Z,143.67
2022-11-22T11:49:14.968Z,106.60
2022-11-22T11:52:04.868Z,79.70
2022-11-22T11:54:38.876Z,102.93
2022-11-22T11:57:12.687Z,110.10
2022-11-22T11:59:40.944Z,114.70
2022-11-22T12:02:35.593Z,119.70
2022-11-22T12:05:13.230Z,100.17
2022-11-22T12:07:46.755Z,95.93
2022-11-22T12:10:49.116Z,291.77
2022-11-22T12:13:24.853Z,150.03
2022-11-22T12:16:22.005Z,136.47
2022-11-22T12:19:25.838Z,115.23
2022-11-22T12:22:47.837Z,155.43
2022-11-22T12:25:37.909Z,228.37
2022-11-22T12:28:24.467Z,150.90
2022-11-22T12:31:22.862Z,119.23
2022-11-22T12:34:01.845Z,201.97
2022-11-22T12:36:55.961Z,107.87
2022-11-22T12:39:27.786Z,115.80
2022-11-22T12:42:34.814Z,115.10
2022-11-22T12:45:28.182Z,123.87
2022-11-22T12:48:01.283Z,143.73
2022-11-22T12:50:47.222Z,126.97
2022-11-22T12:53:19.985Z,133.67
2022-11-22T12:56:13.777Z,183.07
2022-11-22T12:59:22.373Z,135.73
2022-11-22T13:02:26.956Z,111.33
2022-11-22T13:05:18.675Z,107.73
2022-11-22T13:07:56.208Z,131.73
2022-11-22T13:10:33.033Z,106.03
2022-11-22T13:13:04.566Z,182.30
2022-11-22T13:15:37.051Z,129.47
2022-11-22T13:18:10.552Z,202.27
2022-11-22T13:21:04.486Z,246.60
2022-11-22T13:23:50.580Z,223.60
2022-11-22T13:26:22.803Z,232.43
2022-11-22T13:28:51.863Z,102.43
2022-11-22T13:31:20.514Z,250.80
2022-11-22T13:33:59.216Z,120.70
2022-11-22T13:36:29.799Z,126.20
2022-11-22T13:39:00.250Z,152.70
2022-11-22T13:42:01.467Z,119.67
2022-11-22T13:44:32.929Z,134.87
2022-11-22T13:47:13.098Z,104.50
2022-11-22T13:49:48.641Z,109.83
2022-11-22T13:52:16.739Z,96.97
2022-11-22T13:54:47.974Z,168.47
2022-11-22T13:57:30.696Z,145.57
2022-11-22T14:00:13.324Z,204.97
2022-11-22T14:02:44.362Z,197.67
2022-11-22T14:05:39.902Z,112.20
2022-11-22T14:08:26.959Z,102.63
2022-11-22T14:10:54.842Z,181.43
2022-11-22T14:13:48.381Z,111.03
2022-11-22T14:16:25.899Z,124.00
2022-11-22T14:19:02.663Z,131.77
2022-11-22T14:21:45.913Z,128.83
2022-11-22T14:24:41.139Z,181.53
2022-11-22T14:27:30.952Z,234.93
2022-11-22T14:30:15.546Z,147.93
2022-11-22T14:32:51.829Z,227.90
2022-11-22T14:35:27.933Z,671.40
2022-11-22T14:38:07.128Z,506.77
2022-11-22T14:40:40.489Z,199.40
2022-11-22T14:43:11.334Z,134.00
2022-11-22T14:45:43.852Z,190.10
2022-11-22T14:48:19.772Z,314.60
2022-11-22T14:51:05.450Z,180.47
2022-11-22T14:53:41.300Z,230.03
2022-11-22T14:56:19.838Z,214.33
2022-11-22T14:59:11.881Z,123.63
2022-11-22T15:01:46.379Z,233.97
2022-11-22T15:09:10.288Z,252.00
2022-11-22T15:09:21.190Z,294.33
2022-11-22T15:11:02.995Z,178.03
2022-11-22T15:13:52.441Z,142.87
2022-11-22T15:58:12.954Z,167.10
2022-11-22T16:00:44.766Z,160.47
2022-11-22T16:03:23.990Z,152.07
2022-11-22T16:06:05.761Z,145.27
2022-11-22T16:08:38.744Z,256.10
2022-11-22T16:11:06.969Z,723.00
2022-11-22T16:13:36.678Z,327.57
2022-11-22T16:16:07.447Z,163.33
2022-11-22T16:18:35.548Z,239.33
2022-11-22T16:21:18.701Z,304.73
2022-11-22T16:23:47.108Z,216.23
2022-11-22T16:26:31.960Z,146.53
2022-11-22T16:29:44.097Z,144.43
2022-11-22T16:32:14.143Z,187.73
2022-11-22T16:34:43.537Z,146.47
2022-11-22T16:37:28.324Z,144.50
2022-11-22T16:39:58.736Z,134.83
2022-11-22T16:42:26.997Z,158.23
2022-11-22T16:44:58.375Z,134.80
2022-11-22T16:47:30.350Z,197.17
2022-11-22T16:49:59.896Z,183.90
2022-11-22T16:52:28.341Z,157.30
2022-11-22T16:54:56.466Z,160.17
2022-11-22T16:57:24.300Z,211.10
2022-11-22T16:59:54.699Z,321.67
2022-11-22T17:02:23.027Z,171.63
2022-11-22T17:04:51.655Z,164.77
2022-11-22T17:07:19.983Z,156.63
2022-11-22T17:09:48.440Z,153.43
2022-11-22T17:12:32.199Z,145.13
2022-11-22T17:15:02.000Z,135.93
2022-11-22T17:17:29.731Z,146.77
2022-11-22T17:19:58.487Z,120.57
2022-11-22T17:22:26.657Z,173.60
2022-11-22T17:24:55.515Z,171.70
2022-11-22T17:27:23.466Z,144.50
2022-11-22T17:29:52.109Z,161.97
2022-11-22T17:32:20.651Z,149.93
2022-11-22T17:34:48.608Z,114.97
2022-11-22T17:37:16.654Z,132.33
2022-11-22T17:39:45.050Z,130.23
2022-11-22T17:42:12.812Z,126.50
2022-11-22T17:44:40.910Z,138.17
2022-11-22T17:47:09.169Z,155.50
2022-11-22T17:49:37.371Z,192.60
2022-11-22T17:52:05.252Z,176.57
2022-11-22T17:54:33.259Z,122.83
2022-11-22T17:57:00.911Z,128.83
2022-11-22T17:59:29.025Z,144.47
2022-11-22T18:01:57.139Z,139.70
2022-11-22T18:04:25.136Z,121.17
2022-11-22T18:06:53.323Z,123.10
2022-11-22T18:09:21.458Z,178.13
2022-11-22T18:11:50.034Z,141.47
2022-11-22T18:14:18.479Z,131.83
2022-11-22T18:16:46.024Z,153.10
2022-11-22T18:19:13.997Z,137.57
2022-11-22T18:21:41.679Z,133.60
2022-11-22T18:24:09.724Z,146.77
2022-11-22T18:26:39.785Z,124.50
2022-11-22T18:31:57.544Z,185.70
2022-11-22T18:34:25.708Z,289.63
2022-11-22T18:36:55.942Z,336.83
2022-11-22T18:39:27.119Z,163.97
2022-11-22T18:41:55.031Z,164.10
2022-11-22T18:44:23.098Z,149.53
2022-11-22T18:46:50.760Z,141.60
2022-11-22T18:49:18.524Z,151.73
2022-11-22T18:51:46.567Z,148.90
2022-11-22T18:54:14.721Z,196.73
2022-11-22T18:56:42.402Z,217.50
2022-11-22T18:59:12.914Z,182.33
2022-11-22T19:01:41.405Z,145.43
2022-11-22T19:04:13.394Z,146.80
2022-11-22T19:06:42.121Z,143.67
2022-11-22T19:09:10.444Z,150.77
2022-11-22T19:11:38.141Z,213.13
2022-11-22T19:14:06.239Z,179.97
2022-11-22T19:16:34.127Z,208.13
2022-11-22T19:19:02.258Z,183.80
2022-11-22T19:21:30.627Z,164.50
2022-11-22T19:23:58.517Z,161.00
2022-11-22T19:26:28.300Z,191.60
2022-11-22T19:28:57.924Z,188.03
2022-11-22T19:31:29.330Z,187.00
2022-11-22T19:33:58.690Z,152.73
2022-11-22T19:36:33.185Z,176.27
2022-11-22T19:39:05.739Z,198.97
2022-11-22T19:41:33.761Z,144.93
2022-11-22T19:44:01.892Z,147.23
2022-11-22T19:46:30.308Z,165.80
2022-11-22T19:48:59.680Z,185.00
2022-11-22T19:51:29.865Z,203.67
2022-11-22T19:54:00.126Z,176.73
2022-11-22T19:56:30.800Z,159.50
2022-11-22T19:59:00.678Z,141.67
2022-11-22T20:01:30.982Z,145.67
2022-11-22T20:04:02.367Z,126.50
2022-11-22T20:06:30.797Z,163.73
2022-11-22T20:09:13.246Z,141.73
2022-11-22T20:11:41.727Z,139.37
2022-11-22T20:14:10.214Z,143.00
2022-11-22T20:16:41.431Z,147.50
2022-11-22T20:19:11.663Z,147.27
2022-11-22T20:21:40.311Z,131.30
2022-11-22T20:24:08.537Z,139.57
2022-11-22T20:26:36.418Z,146.13
2022-11-22T20:29:07.424Z,136.53
2022-11-22T20:31:38.132Z,124.73
2022-11-22T20:34:06.113Z,139.73
2022-11-22T20:36:35.497Z,153.63
2022-11-22T20:39:09.576Z,162.13
2022-11-22T20:41:39.049Z,137.30
2022-11-22T20:44:07.766Z,141.63
2022-11-22T20:46:37.118Z,146.37
2022-11-22T20:49:05.169Z,148.10
2022-11-22T20:51:36.167Z,135.03
2022-11-22T20:54:04.091Z,139.07
2022-11-22T20:56:32.081Z,146.80
2022-11-22T20:59:00.235Z,147.73
2022-11-22T21:01:30.142Z,139.10
2022-11-22T21:03:58.583Z,139.27
2022-11-22T21:06:29.342Z,139.47
2022-11-22T21:08:57.581Z,137.83
2022-11-22T21:11:27.134Z,136.23
2022-11-22T21:13:56.807Z,147.90
2022-11-22T21:16:26.778Z,135.80
2022-11-22T21:19:02.947Z,126.47
2022-11-22T21:21:32.259Z,141.00
2022-11-22T21:24:01.665Z,140.07
2022-11-22T21:26:30.513Z,142.20
2022-11-22T21:28:59.765Z,143.60
2022-11-22T21:31:28.369Z,135.27
2022-11-22T21:33:56.395Z,137.30
2022-11-22T21:36:24.193Z,140.50
2022-11-22T21:38:52.474Z,149.27
2022-11-22T21:44:11.080Z,143.03
2022-11-22T21:46:39.588Z,133.43
2022-11-22T21:49:07.945Z,145.23
2022-11-22T21:51:35.772Z,133.40
2022-11-22T21:54:03.879Z,140.47
2022-11-22T21:56:31.911Z,152.80
2022-11-22T21:58:59.958Z,153.03
2022-11-22T22:01:28.379Z,146.80
2022-11-22T22:03:56.433Z,136.70
2022-11-22T22:06:25.903Z,137.87
2022-11-22T22:08:53.845Z,146.43
2022-11-22T22:11:24.426Z,148.20
2022-11-22T22:13:58.417Z,157.10
2022-11-22T22:16:26.637Z,133.27
2022-11-22T22:18:54.791Z,144.97
2022-11-22T22:21:22.715Z,133.27
2022-11-22T22:23:50.402Z,141.10
2022-11-22T22:26:18.559Z,134.07
2022-11-22T22:28:46.774Z,147.27
2022-11-22T22:31:21.994Z,147.53
2022-11-22T22:33:57.651Z,137.83
2022-11-22T22:36:27.570Z,150.00
2022-11-22T22:38:55.500Z,137.50
2022-11-22T22:41:23.513Z,151.93
2022-11-22T22:43:51.043Z,155.87
2022-11-22T22:46:25.037Z,144.93
2022-11-22T22:48:55.226Z,156.17
2022-11-22T22:51:31.884Z,148.73
2022-11-22T22:54:01.243Z,153.27
2022-11-22T22:56:31.079Z,152.30
2022-11-22T22:59:01.313Z,158.97
2022-11-22T23:01:31.085Z,152.27
2022-11-22T23:04:00.504Z,143.20
2022-11-22T23:06:31.249Z,143.27
2022-11-22T23:08:59.401Z,149.23
2022-11-22T23:11:47.963Z,141.57
2022-11-22T23:14:17.877Z,166.07
2022-11-22T23:16:46.002Z,144.83
2022-11-22T23:19:14.178Z,143.80
2022-11-22T23:21:42.138Z,141.00
2022-11-22T23:24:10.377Z,145.17
2022-11-22T23:26:39.094Z,150.60
2022-11-22T23:29:07.133Z,145.73
2022-11-22T23:31:35.404Z,160.67
2022-11-22T23:34:02.877Z,155.50
2022-11-22T23:36:31.597Z,137.37
2022-11-22T23:39:01.525Z,157.80
2022-11-22T23:41:30.379Z,145.20
2022-11-22T23:43:57.940Z,166.60
2022-11-22T23:46:28.202Z,151.60
2022-11-22T23:48:58.237Z,166.83
2022-11-22T23:51:27.729Z,165.03
2022-11-22T23:54:00.535Z,154.47
2022-11-22T23:56:29.461Z,163.97
2022-11-22T23:58:59.956Z,164.33
